Time;durP1;ratioP1;P1;durP2;ratioP2;P2;SDS_P1;SDS_P2;PMS_P1;PMS_P2;Temp;Humidity;BMP_temperature;BMP_pressure;BME280_temperature;BME280_humidity;BME280_pressure;Samples;Min_cycle;Max_cycle;Signal;HPM_P1;HPM_P2
2023/09/24 00:00:10;;;;;;;4.13;2.83;;;11.60;1.00;;;;;;4968939;28;20442;-77
2023/09/24 00:02:36;;;;;;;4.53;2.80;;;11.60;1.00;;;;;;4968866;28;20190;-78
2023/09/24 00:05:05;;;;;;;6.47;2.80;;;11.60;1.00;;;;;;4968745;28;20446;-78
2023/09/24 00:07:31;;;;;;;4.83;2.77;;;11.50;1.00;;;;;;4968753;28;20474;-77
2023/09/24 00:10:00;;;;;;;5.83;2.90;;;11.50;1.00;;;;;;4967913;28;20967;-78
2023/09/24 00:12:25;;;;;;;3.57;2.80;;;11.50;1.00;;;;;;4968480;28;20199;-77
2023/09/24 00:14:51;;;;;;;5.43;2.60;;;11.40;1.00;;;;;;4967800;28;20450;-77
2023/09/24 00:17:16;;;;;;;4.20;2.60;;;11.30;1.00;;;;;;4968259;28;20186;-78
2023/09/24 00:19:42;;;;;;;3.60;2.57;;;11.30;1.00;;;;;;4968571;28;20230;-77
2023/09/24 00:22:07;;;;;;;3.93;2.83;;;11.30;1.00;;;;;;4967738;28;20226;-77
2023/09/24 00:24:33;;;;;;;4.93;2.83;;;11.30;1.00;;;;;;4968416;28;20673;-81
2023/09/24 00:26:58;;;;;;;5.30;2.70;;;11.30;1.00;;;;;;4967315;28;20234;-78
2023/09/24 00:29:24;;;;;;;5.10;3.10;;;11.30;1.00;;;;;;4968980;28;20180;-78
2023/09/24 00:31:49;;;;;;;4.90;2.87;;;11.20;1.00;;;;;;4967724;28;20238;-79
2023/09/24 00:34:16;;;;;;;3.80;2.80;;;11.20;1.00;;;;;;4966654;28;20195;-78
2023/09/24 00:36:41;;;;;;;4.90;2.93;;;11.20;1.00;;;;;;4950684;28;20192;-80
2023/09/24 00:39:07;;;;;;;4.87;2.70;;;11.10;1.00;;;;;;4967746;28;20448;-79
2023/09/24 00:41:32;;;;;;;6.13;2.67;;;11.10;1.00;;;;;;4968156;28;20258;-79
2023/09/24 00:43:58;;;;;;;6.30;2.73;;;11.10;1.00;;;;;;4967311;28;20528;-80
2023/09/24 00:46:24;;;;;;;5.27;2.70;;;11.10;1.00;;;;;;4968408;28;20187;-78
2023/09/24 00:48:51;;;;;;;6.93;3.23;;;11.10;1.00;;;;;;4969122;28;20191;-78
2023/09/24 00:51:22;;;;;;;3.43;2.73;;;11.10;1.00;;;;;;4966421;28;20238;-78
2023/09/24 00:53:50;;;;;;;9.10;2.90;;;11.00;1.00;;;;;;4951821;28;20856;-78
2023/09/24 00:56:15;;;;;;;4.00;2.53;;;10.90;1.00;;;;;;4968248;28;20439;-79
2023/09/24 00:58:46;;;;;;;7.47;2.83;;;10.70;1.00;;;;;;4969873;28;20490;-77
2023/09/24 01:01:12;;;;;;;3.97;2.20;;;10.60;1.00;;;;;;4969110;28;20203;-77
2023/09/24 01:03:40;;;;;;;5.43;2.30;;;10.60;1.00;;;;;;4969896;28;20957;-77
2023/09/24 01:06:06;;;;;;;6.33;2.80;;;10.60;1.00;;;;;;4969113;28;20183;-77
2023/09/24 01:08:33;;;;;;;6.27;2.70;;;10.60;1.00;;;;;;4951791;28;20476;-77
2023/09/24 01:10:59;;;;;;;3.40;2.57;;;10.50;1.00;;;;;;4967953;28;20680;-77
2023/09/24 01:13:35;;;;;;;7.03;2.60;;;10.50;1.00;;;;;;4969769;28;20423;-77
2023/09/24 01:16:00;;;;;;;3.73;2.70;;;10.50;1.00;;;;;;4948493;28;20438;-78
2023/09/24 01:18:26;;;;;;;5.20;3.10;;;10.40;1.00;;;;;;4968451;28;20446;-79
2023/09/24 01:20:51;;;;;;;7.17;2.80;;;10.50;1.00;;;;;;4969266;28;20299;-77
2023/09/24 01:23:17;;;;;;;4.50;2.67;;;10.50;1.00;;;;;;4968188;28;20259;-77
2023/09/24 01:25:45;;;;;;;4.80;3.17;;;10.50;1.00;;;;;;4968291;28;20192;-78
2023/09/24 01:28:11;;;;;;;4.33;2.60;;;10.40;1.00;;;;;;4968981;28;20200;-80
2023/09/24 01:30:38;;;;;;;5.20;3.03;;;10.40;1.00;;;;;;4969157;28;20481;-79
2023/09/24 01:33:04;;;;;;;3.60;2.53;;;10.30;1.00;;;;;;4968197;28;20485;-78
2023/09/24 01:35:34;;;;;;;3.40;2.60;;;10.30;1.00;;;;;;4968156;28;20855;-77
2023/09/24 01:38:04;;;;;;;4.10;2.93;;;10.30;1.00;;;;;;4968439;28;20439;-79
2023/09/24 01:40:34;;;;;;;6.83;3.00;;;10.30;1.00;;;;;;4951339;28;21005;-77
2023/09/24 01:43:05;;;;;;;3.40;2.73;;;10.20;1.00;;;;;;4969138;28;20420;-77
2023/09/24 01:45:33;;;;;;;4.63;3.20;;;10.20;1.00;;;;;;4968413;28;20629;-77
2023/09/24 01:47:59;;;;;;;6.17;2.83;;;10.20;1.00;;;;;;4953968;28;20566;-78
2023/09/24 01:50:28;;;;;;;3.77;2.97;;;10.20;1.00;;;;;;4972174;28;20550;-77
2023/09/24 01:52:57;;;;;;;6.37;2.87;;;10.20;1.00;;;;;;4954015;28;20899;-77
2023/09/24 01:55:26;;;;;;;4.77;2.83;;;10.10;1.00;;;;;;4972299;28;20419;-77
2023/09/24 01:57:53;;;;;;;2.83;2.43;;;10.10;1.00;;;;;;4971917;28;20442;-78
2023/09/24 02:00:26;;;;;;;5.80;3.00;;;9.90;1.00;;;;;;4970749;28;20505;-77
2023/09/24 02:03:05;;;;;;;3.00;2.47;;;9.90;1.00;;;;;;4971515;28;20481;-77
2023/09/24 02:05:35;;;;;;;6.40;3.33;;;9.90;1.00;;;;;;4964329;28;20847;-77
2023/09/24 02:08:09;;;;;;;5.73;2.60;;;9.90;1.00;;;;;;4972901;28;20469;-75
2023/09/24 02:10:38;;;;;;;3.30;2.53;;;10.00;1.00;;;;;;4972554;28;20809;-78
2023/09/24 02:13:03;;;;;;;3.10;2.33;;;10.00;1.00;;;;;;4954918;28;20435;-77
2023/09/24 02:15:29;;;;;;;3.40;2.60;;;10.00;1.00;;;;;;4971477;28;20522;-78
2023/09/24 02:17:54;;;;;;;5.10;2.47;;;9.90;1.00;;;;;;4971173;28;20189;-78
2023/09/24 02:20:22;;;;;;;7.03;2.73;;;9.90;1.00;;;;;;4971902;28;20203;-77
2023/09/24 02:22:50;;;;;;;4.10;2.50;;;9.80;1.00;;;;;;4971044;28;20190;-77
2023/09/24 02:25:19;;;;;;;4.43;2.80;;;9.80;1.00;;;;;;4971607;28;20435;-77
2023/09/24 02:27:46;;;;;;;4.20;2.40;;;9.70;1.00;;;;;;4971956;28;20498;-79
2023/09/24 02:30:13;;;;;;;4.00;2.63;;;9.60;1.00;;;;;;4952370;28;20528;-77
2023/09/24 02:32:39;;;;;;;3.57;2.50;;;9.60;1.00;;;;;;4965989;28;20450;-80
2023/09/24 02:35:05;;;;;;;3.73;2.50;;;9.50;1.00;;;;;;4958217;28;20486;-80
2023/09/24 02:37:32;;;;;;;6.23;2.53;;;9.60;1.00;;;;;;4972112;28;20439;-78
2023/09/24 02:39:58;;;;;;;4.50;2.63;;;9.50;1.00;;;;;;4970345;28;20673;-78
2023/09/24 02:42:25;;;;;;;2.97;2.33;;;9.50;1.00;;;;;;4970920;28;20514;-80
2023/09/24 02:44:50;;;;;;;4.43;2.40;;;9.50;1.00;;;;;;4970726;28;20183;-78
2023/09/24 02:47:16;;;;;;;3.97;2.47;;;9.60;1.00;;;;;;4970333;28;20925;-79
2023/09/24 02:49:41;;;;;;;6.97;3.07;;;9.60;1.00;;;;;;4971621;28;20484;-78
2023/09/24 02:52:08;;;;;;;3.70;2.57;;;9.70;1.00;;;;;;4968917;28;20219;-76
2023/09/24 02:54:34;;;;;;;3.47;2.40;;;9.70;1.00;;;;;;4971108;28;20222;-78
2023/09/24 02:56:59;;;;;;;4.47;2.40;;;9.70;1.00;;;;;;4969467;28;20522;-78
2023/09/24 02:59:25;;;;;;;4.77;2.73;;;9.70;1.00;;;;;;4970051;28;20192;-78
2023/09/24 03:01:52;;;;;;;3.80;2.70;;;9.70;1.00;;;;;;4971217;28;20482;-78
2023/09/24 03:04:18;;;;;;;3.90;2.70;;;9.70;1.00;;;;;;4970579;28;20279;-78
2023/09/24 03:06:44;;;;;;;3.77;2.47;;;9.60;1.00;;;;;;4970052;28;20976;-78
2023/09/24 03:09:12;;;;;;;7.10;3.60;;;9.60;1.00;;;;;;4952346;28;20435;-78
2023/09/24 03:11:38;;;;;;;8.33;3.10;;;9.60;1.00;;;;;;4971221;28;20562;-77
2023/09/24 03:14:03;;;;;;;7.20;3.00;;;9.50;1.00;;;;;;4970517;28;20444;-77
2023/09/24 03:16:29;;;;;;;6.60;2.47;;;9.50;1.00;;;;;;4961843;28;20558;-78
2023/09/24 03:18:55;;;;;;;5.27;2.70;;;9.50;1.00;;;;;;4969778;28;20183;-77
2023/09/24 03:21:21;;;;;;;2.90;2.37;;;9.40;1.00;;;;;;4970083;28;20467;-82
2023/09/24 03:23:46;;;;;;;5.80;2.93;;;9.30;1.00;;;;;;4969940;28;20621;-78
2023/09/24 03:26:15;;;;;;;7.07;2.90;;;9.30;1.00;;;;;;4970069;28;20188;-81
2023/09/24 03:28:41;;;;;;;4.87;2.47;;;9.30;1.00;;;;;;4969928;28;20204;-79
2023/09/24 03:31:14;;;;;;;3.13;2.37;;;9.30;1.00;;;;;;4970127;28;20597;-83
2023/09/24 03:33:39;;;;;;;3.83;2.40;;;9.20;1.00;;;;;;4970018;28;20442;-78
2023/09/24 03:36:10;;;;;;;4.53;2.60;;;9.20;1.00;;;;;;4962352;28;20435;-78
2023/09/24 03:38:36;;;;;;;4.73;2.73;;;9.30;1.00;;;;;;4970750;28;20188;-78
2023/09/24 03:41:03;;;;;;;5.23;2.87;;;9.00;1.00;;;;;;4952945;28;20467;-78
2023/09/24 03:43:29;;;;;;;5.73;2.90;;;9.00;1.00;;;;;;4969000;28;20455;-80
2023/09/24 03:45:54;;;;;;;4.23;2.33;;;9.00;1.00;;;;;;4969086;28;20827;-79
2023/09/24 03:48:20;;;;;;;4.27;2.40;;;9.00;1.00;;;;;;4969996;28;20215;-78
2023/09/24 03:50:45;;;;;;;5.40;2.77;;;9.00;1.00;;;;;;4969922;28;20216;-78
2023/09/24 03:53:11;;;;;;;5.23;2.60;;;8.90;1.00;;;;;;4969105;28;20617;-79
2023/09/24 03:55:37;;;;;;;3.60;2.67;;;9.00;1.00;;;;;;4969860;28;20698;-78
2023/09/24 03:58:05;;;;;;;4.47;2.83;;;8.90;1.00;;;;;;4970194;28;20259;-78
2023/09/24 04:00:31;;;;;;;5.70;2.70;;;9.00;1.00;;;;;;4968293;28;20470;-81
2023/09/24 04:02:58;;;;;;;4.47;3.10;;;8.90;1.00;;;;;;4969225;28;20439;-78
2023/09/24 04:05:24;;;;;;;3.77;2.57;;;8.90;1.00;;;;;;4969380;28;20195;-78
2023/09/24 04:07:52;;;;;;;5.73;2.70;;;8.90;1.00;;;;;;4969346;28;20470;-81
2023/09/24 04:10:19;;;;;;;4.40;2.80;;;8.80;1.00;;;;;;4968473;28;20220;-81
2023/09/24 04:12:51;;;;;;;6.27;2.67;;;8.90;1.00;;;;;;4970038;28;20439;-78
2023/09/24 04:15:19;;;;;;;7.77;3.13;;;8.80;1.00;;;;;;4968849;28;20470;-77
2023/09/24 04:17:48;;;;;;;4.97;2.60;;;8.80;1.00;;;;;;4969968;28;20494;-78
2023/09/24 04:20:14;;;;;;;4.93;2.60;;;8.90;1.00;;;;;;4968512;28;20434;-77
2023/09/24 04:22:40;;;;;;;3.83;2.40;;;8.90;1.00;;;;;;4968990;28;20493;-78
2023/09/24 04:25:06;;;;;;;3.93;2.60;;;8.90;1.00;;;;;;4968559;28;20443;-79
2023/09/24 04:27:32;;;;;;;3.30;2.40;;;8.90;1.00;;;;;;4968757;28;20225;-78
2023/09/24 04:29:57;;;;;;;3.37;2.30;;;8.90;1.00;;;;;;4969630;28;20246;-80
2023/09/24 04:32:23;;;;;;;5.23;2.30;;;8.90;1.00;;;;;;4950786;28;21024;-78
2023/09/24 04:34:50;;;;;;;3.70;2.90;;;9.00;1.00;;;;;;4967851;28;20183;-78
2023/09/24 04:37:16;;;;;;;5.43;2.43;;;9.00;1.00;;;;;;4968987;28;20186;-80
2023/09/24 04:39:44;;;;;;;3.60;2.43;;;9.10;1.00;;;;;;4968794;28;20443;-80
2023/09/24 04:42:11;;;;;;;2.73;2.27;;;9.10;1.00;;;;;;4968179;28;20461;-79
2023/09/24 04:44:38;;;;;;;4.73;2.70;;;9.10;1.00;;;;;;4968381;28;20445;-78
2023/09/24 04:47:04;;;;;;;5.93;2.60;;;9.20;1.00;;;;;;4969274;28;20463;-81
2023/09/24 04:49:30;;;;;;;4.83;2.37;;;9.20;1.00;;;;;;4967762;28;20439;-79
2023/09/24 04:51:55;;;;;;;4.20;2.37;;;9.10;1.00;;;;;;4950692;28;20469;-80
2023/09/24 04:54:22;;;;;;;2.83;2.17;;;9.20;1.00;;;;;;4969200;28;20937;-79
2023/09/24 04:56:48;;;;;;;4.67;2.17;;;9.10;1.00;;;;;;4969666;28;20175;-78
2023/09/24 04:59:13;;;;;;;6.20;2.50;;;9.10;1.00;;;;;;4968784;28;20994;-78
2023/09/24 05:01:39;;;;;;;3.97;2.50;;;9.10;1.00;;;;;;4968925;28;20623;-78
2023/09/24 05:04:05;;;;;;;3.23;2.57;;;9.10;1.00;;;;;;4968301;28;20191;-78
2023/09/24 05:06:32;;;;;;;5.10;2.37;;;9.10;1.00;;;;;;4967638;28;20710;-80
2023/09/24 05:08:58;;;;;;;5.40;2.20;;;9.10;1.00;;;;;;4952434;28;20240;-77
2023/09/24 05:11:23;;;;;;;3.87;3.10;;;9.00;1.00;;;;;;4968921;28;20593;-76
2023/09/24 05:13:49;;;;;;;4.87;2.30;;;8.90;1.00;;;;;;4967830;28;20526;-78
2023/09/24 05:16:15;;;;;;;5.40;2.30;;;8.90;1.00;;;;;;4968472;28;20195;-82
2023/09/24 05:18:41;;;;;;;3.97;2.60;;;8.80;1.00;;;;;;4969162;28;20187;-78
2023/09/24 05:21:19;;;;;;;4.00;2.40;;;8.80;1.00;;;;;;4968702;28;21090;-80
2023/09/24 05:23:45;;;;;;;2.67;2.13;;;8.90;1.00;;;;;;4972275;28;20188;-80
2023/09/24 05:26:13;;;;;;;3.53;2.17;;;8.80;1.00;;;;;;4972595;28;20443;-77
2023/09/24 05:28:39;;;;;;;4.00;2.57;;;8.80;1.00;;;;;;4972280;28;20517;-78
2023/09/24 05:31:05;;;;;;;2.77;2.30;;;8.90;1.00;;;;;;4972904;28;20458;-78
2023/09/24 05:33:30;;;;;;;4.80;2.40;;;8.90;1.00;;;;;;4972222;28;20443;-76
2023/09/24 05:35:56;;;;;;;3.60;2.53;;;8.90;1.00;;;;;;4970769;28;20190;-77
2023/09/24 05:38:21;;;;;;;3.37;2.40;;;9.00;1.00;;;;;;4971987;28;20202;-80
2023/09/24 05:40:47;;;;;;;2.87;2.20;;;9.00;1.00;;;;;;4972738;28;20254;-78
2023/09/24 05:43:13;;;;;;;3.20;2.63;;;9.00;1.00;;;;;;4972971;28;20287;-78
2023/09/24 05:45:46;;;;;;;4.00;2.83;;;9.00;1.00;;;;;;4970046;28;20565;-77
2023/09/24 05:48:13;;;;;;;3.80;2.57;;;9.10;1.00;;;;;;4954134;28;20212;-78
2023/09/24 05:50:39;;;;;;;3.53;2.80;;;9.20;1.00;;;;;;4971484;28;20565;-78
2023/09/24 05:53:06;;;;;;;9.23;2.47;;;9.30;1.00;;;;;;4970523;28;20538;-79
2023/09/24 05:55:32;;;;;;;4.30;2.60;;;9.30;1.00;;;;;;4970603;28;20188;-78
2023/09/24 05:57:58;;;;;;;4.47;2.70;;;9.30;1.00;;;;;;4970857;28;20454;-78
2023/09/24 06:00:24;;;;;;;3.20;2.33;;;9.30;1.00;;;;;;4970035;28;20183;-77
2023/09/24 06:02:50;;;;;;;3.80;2.20;;;9.30;1.00;;;;;;4970249;28;20264;-78
2023/09/24 06:05:16;;;;;;;4.17;2.13;;;9.40;1.00;;;;;;4971180;28;20534;-78
2023/09/24 06:07:42;;;;;;;4.00;2.40;;;9.60;1.00;;;;;;4969121;28;20543;-79
2023/09/24 06:10:09;;;;;;;4.00;2.63;;;9.80;1.00;;;;;;4969820;28;20172;-79
2023/09/24 06:12:35;;;;;;;2.80;2.47;;;9.80;1.00;;;;;;4969100;28;22400;-78
2023/09/24 06:15:01;;;;;;;2.70;2.50;;;10.00;1.00;;;;;;4970564;28;20435;-78
2023/09/24 06:17:27;;;;;;;3.50;2.80;;;10.20;1.00;;;;;;4970478;28;20191;-78
2023/09/24 06:19:55;;;;;;;5.80;2.70;;;10.50;1.00;;;;;;4969380;28;20187;-78
2023/09/24 06:22:22;;;;;;;7.50;3.80;;;10.50;1.00;;;;;;4970673;28;20458;-78
2023/09/24 06:24:50;;;;;;;3.07;2.67;;;10.90;1.00;;;;;;4970317;28;20502;-78
2023/09/24 06:27:16;;;;;;;4.83;2.60;;;11.10;1.00;;;;;;4970385;28;20529;-78
2023/09/24 06:29:43;;;;;;;2.83;2.27;;;11.20;1.00;;;;;;4970861;28;20435;-81
2023/09/24 06:32:08;;;;;;;3.90;3.03;;;11.40;1.00;;;;;;4966594;28;20463;-79
2023/09/24 06:34:36;;;;;;;4.00;2.80;;;11.50;1.00;;;;;;4969984;28;20435;-77
2023/09/24 06:37:02;;;;;;;3.87;2.53;;;11.90;1.00;;;;;;4970841;28;20523;-78
2023/09/24 06:39:29;;;;;;;3.10;2.10;;;12.60;1.00;;;;;;4969319;28;20991;-79
2023/09/24 06:41:55;;;;;;;3.83;2.50;;;13.00;1.00;;;;;;4968661;28;20896;-80
2023/09/24 06:44:22;;;;;;;4.50;2.90;;;13.00;1.00;;;;;;4968495;28;20459;-81
2023/09/24 06:46:48;;;;;;;3.53;2.70;;;12.70;1.00;;;;;;4970206;28;20234;-78
2023/09/24 06:49:14;;;;;;;6.93;3.30;;;12.70;1.00;;;;;;4970415;28;20439;-79
2023/09/24 06:51:40;;;;;;;4.77;2.90;;;12.70;1.00;;;;;;4931952;28;1033161;-80
2023/09/24 06:54:05;;;;;;;3.10;2.80;;;12.80;1.00;;;;;;4968878;28;20198;-79
2023/09/24 06:56:31;;;;;;;3.97;2.80;;;12.70;1.00;;;;;;4970989;28;20187;-77
2023/09/24 06:58:56;;;;;;;5.70;3.00;;;12.60;1.00;;;;;;4952734;28;20523;-74
2023/09/24 07:01:22;;;;;;;4.17;3.03;;;12.50;1.00;;;;;;4970127;28;20211;-74
2023/09/24 07:03:48;;;;;;;4.47;3.00;;;12.40;1.00;;;;;;4970787;28;20190;-74
2023/09/24 07:06:16;;;;;;;3.27;2.60;;;12.40;1.00;;;;;;4955576;28;20226;-73
2023/09/24 07:08:41;;;;;;;3.77;2.97;;;12.40;1.00;;;;;;4972548;28;20533;-73
2023/09/24 07:11:31;;;;;;;7.40;2.90;;;13.80;1.00;;;;;;4975780;28;21032;-75
2023/09/24 07:13:57;;;;;;;3.80;2.67;;;12.50;1.00;;;;;;4967123;28;20266;-76
2023/09/24 07:16:24;;;;;;;3.50;2.70;;;12.60;1.00;;;;;;4973370;28;20412;-74
2023/09/24 07:18:50;;;;;;;5.83;2.90;;;12.70;1.00;;;;;;4973475;28;20430;-71
2023/09/24 07:21:17;;;;;;;6.60;2.83;;;12.70;1.00;;;;;;4971926;28;20816;-71
2023/09/24 07:23:43;;;;;;;4.90;2.90;;;12.80;1.00;;;;;;4972911;28;20419;-78
2023/09/24 07:26:08;;;;;;;5.77;3.00;;;12.90;1.00;;;;;;4971505;28;21146;-78
2023/09/24 07:28:35;;;;;;;4.20;2.80;;;13.00;1.00;;;;;;4971483;28;20211;-77
2023/09/24 07:31:00;;;;;;;4.60;2.97;;;13.10;1.00;;;;;;4971430;28;20203;-77
2023/09/24 07:33:26;;;;;;;6.23;3.20;;;13.20;1.00;;;;;;4968228;28;20450;-77
2023/09/24 07:35:52;;;;;;;4.30;2.80;;;13.30;1.00;;;;;;4953122;28;20314;-77
2023/09/24 07:38:18;;;;;;;11.60;3.60;;;13.40;1.00;;;;;;4971647;28;20510;-77
2023/09/24 07:40:44;;;;;;;4.70;3.30;;;13.50;1.00;;;;;;4970281;28;20211;-77
2023/09/24 07:43:10;;;;;;;6.70;3.80;;;13.60;1.00;;;;;;4971304;28;20438;-79
2023/09/24 07:45:36;;;;;;;6.43;3.43;;;13.70;1.00;;;;;;4969983;28;20195;-77
2023/09/24 07:48:04;;;;;;;5.87;3.47;;;13.80;1.00;;;;;;4971156;28;20466;-78
2023/09/24 07:50:30;;;;;;;4.00;3.10;;;14.00;1.00;;;;;;4970556;28;20238;-77
2023/09/24 07:52:56;;;;;;;6.23;3.50;;;14.10;1.00;;;;;;4953655;28;20455;-78
2023/09/24 07:55:22;;;;;;;5.20;3.10;;;14.20;1.00;;;;;;4970967;28;20236;-79
2023/09/24 07:57:47;;;;;;;3.90;3.27;;;;;;;;;;4970925;28;20435;-77
2023/09/24 08:00:14;;;;;;;6.90;3.50;;;14.60;1.00;;;;;;4968232;28;20824;-74
2023/09/24 08:02:39;;;;;;;4.60;3.73;;;14.60;1.00;;;;;;4965719;28;20651;-76
2023/09/24 08:05:05;;;;;;;7.67;3.83;;;14.70;1.00;;;;;;4970751;28;20438;-76
2023/09/24 08:07:32;;;;;;;4.93;3.57;;;14.80;1.00;;;;;;4971198;28;20247;-77
2023/09/24 08:09:58;;;;;;;6.03;3.30;;;14.80;1.00;;;;;;4963284;28;20423;-77
2023/09/24 08:12:23;;;;;;;6.43;3.43;;;14.90;1.00;;;;;;4971522;28;20860;-76
2023/09/24 08:14:49;;;;;;;3.83;3.00;;;15.10;1.00;;;;;;4970984;28;20693;-78
2023/09/24 08:17:14;;;;;;;4.40;3.20;;;15.20;1.00;;;;;;4971212;28;20191;-76
2023/09/24 08:19:40;;;;;;;8.47;3.33;;;15.50;1.00;;;;;;4971197;28;20192;-76
2023/09/24 08:22:05;;;;;;;5.90;3.93;;;16.60;1.00;;;;;;4971439;28;20199;-77
2023/09/24 08:24:31;;;;;;;4.80;3.47;;;18.20;1.00;;;;;;4970802;28;20206;-77
2023/09/24 08:26:56;;;;;;;6.07;4.23;;;20.00;1.00;;;;;;4953244;28;20187;-77
2023/09/24 08:29:22;;;;;;;9.60;3.90;;;24.20;1.00;;;;;;4971220;28;20180;-76
2023/09/24 08:31:47;;;;;;;5.80;3.80;;;23.20;1.00;;;;;;4970633;28;20198;-79
2023/09/24 08:34:13;;;;;;;5.67;3.27;;;24.50;1.00;;;;;;4970682;28;20202;-76
2023/09/24 08:36:39;;;;;;;6.03;3.90;;;25.70;1.00;;;;;;4970466;28;20191;-77
2023/09/24 08:39:05;;;;;;;8.17;3.90;;;26.40;1.00;;;;;;4971250;28;20533;-79
2023/09/24 08:41:31;;;;;;;5.10;3.47;;;26.60;1.00;;;;;;4970875;28;20218;-77
2023/09/24 08:44:03;;;;;;;7.00;3.20;;;27.00;1.00;;;;;;4970230;28;20186;-76
2023/09/24 08:46:29;;;;;;;5.93;3.10;;;27.40;1.00;;;;;;4970292;28;20179;-77
2023/09/24 08:48:55;;;;;;;7.97;3.65;;;28.00;1.00;;;;;;4970401;28;20805;-77
2023/09/24 08:51:21;;;;;;;6.82;3.10;;;28.80;1.00;;;;;;4952321;28;20239;-77
2023/09/24 08:53:46;;;;;;;8.02;3.75;;;28.90;1.00;;;;;;4969487;28;20317;-79
2023/09/24 08:56:12;;;;;;;6.65;3.38;;;29.40;1.00;;;;;;4969320;28;20250;-77
2023/09/24 08:58:37;;;;;;;5.28;3.50;;;29.60;1.00;;;;;;4970155;28;20654;-76
2023/09/24 09:01:08;;;;;;;7.53;3.28;;;30.00;1.00;;;;;;4970339;28;20207;-77
2023/09/24 09:03:34;;;;;;;5.68;3.10;;;29.90;1.00;;;;;;4970503;28;20191;-77
2023/09/24 09:05:59;;;;;;;5.18;3.22;;;30.20;1.00;;;;;;4969801;28;20586;-77
2023/09/24 09:08:25;;;;;;;5.78;3.40;;;30.60;1.00;;;;;;4970334;28;20282;-77
2023/09/24 09:10:50;;;;;;;4.68;2.85;;;30.70;1.00;;;;;;4969846;28;20207;-77
2023/09/24 09:13:18;;;;;;;6.43;3.28;;;31.30;1.00;;;;;;4970105;28;20175;-77
2023/09/24 09:15:44;;;;;;;6.90;3.58;;;31.30;1.00;;;;;;4969554;28;20274;-77
2023/09/24 09:18:25;;;;;;;5.68;3.05;;;31.20;1.00;;;;;;4970306;28;20253;-77
2023/09/24 09:20:58;;;;;;;4.80;2.80;;;32.40;1.00;;;;;;4969202;28;20290;-78
2023/09/24 09:23:36;;;;;;;4.50;2.95;;;32.50;1.00;;;;;;4970507;28;20217;-77
2023/09/24 09:26:03;;;;;;;5.72;2.70;;;32.90;1.00;;;;;;4969592;28;20183;-77
2023/09/24 09:28:31;;;;;;;5.47;2.75;;;33.30;1.00;;;;;;4970158;28;20697;-77
2023/09/24 09:31:06;;;;;;;5.85;2.45;;;34.00;1.00;;;;;;4968445;28;20290;-77
2023/09/24 09:33:36;;;;;;;9.07;3.00;;;34.00;1.00;;;;;;4970131;28;20183;-77
2023/09/24 09:36:03;;;;;;;5.53;3.08;;;33.50;1.00;;;;;;4969135;28;20179;-77
2023/09/24 09:38:28;;;;;;;4.85;3.00;;;33.10;1.00;;;;;;4968085;28;20190;-81
2023/09/24 09:40:58;;;;;;;4.97;3.13;;;32.80;1.00;;;;;;4968572;28;20518;-80
2023/09/24 09:43:29;;;;;;;6.20;3.40;;;33.00;1.00;;;;;;4966847;28;20223;-79
2023/09/24 09:45:55;;;;;;;5.97;2.47;;;33.70;1.00;;;;;;4966553;28;20199;-79
2023/09/24 09:48:32;;;;;;;5.22;2.60;;;34.00;1.00;;;;;;4950772;28;20206;-79
2023/09/24 09:51:05;;;;;;;4.90;2.92;;;35.00;1.00;;;;;;4968362;28;20293;-78
2023/09/24 09:53:34;;;;;;;4.65;2.38;;;35.00;1.00;;;;;;4970124;28;20586;-79
2023/09/24 09:56:02;;;;;;;5.35;2.50;;;35.20;1.00;;;;;;4968465;28;20429;-79
2023/09/24 09:58:30;;;;;;;4.18;2.38;;;35.70;1.00;;;;;;4969720;28;20182;-79
2023/09/24 10:00:55;;;;;;;4.22;2.67;;;35.70;1.00;;;;;;4965275;28;20202;-81
2023/09/24 10:03:23;;;;;;;4.55;2.60;;;35.80;1.00;;;;;;4966808;28;20199;-80
2023/09/24 10:05:49;;;;;;;3.53;2.20;;;35.50;1.00;;;;;;4966854;28;20680;-80
2023/09/24 10:08:33;;;;;;;7.53;2.50;;;35.30;1.00;;;;;;4951238;28;20211;-79
2023/09/24 10:11:00;;;;;;;5.32;2.72;;;35.50;1.00;;;;;;4970622;28;20222;-79
2023/09/24 10:13:55;;;;;;;5.00;2.10;;;35.20;1.00;;;;;;4952511;28;20209;-81
2023/09/24 10:16:24;;;;;;;3.78;2.05;;;34.60;1.00;;;;;;4954618;28;20202;-79
2023/09/24 10:18:59;;;;;;;3.78;1.95;;;35.40;1.00;;;;;;4972971;28;20658;-78
2023/09/24 10:21:36;;;;;;;6.05;2.40;;;35.90;1.00;;;;;;4972510;28;20577;-80
2023/09/24 10:24:14;;;;;;;4.20;2.30;;;35.80;1.00;;;;;;4955015;28;20195;-79
2023/09/24 10:26:50;;;;;;;4.85;2.33;;;35.60;1.00;;;;;;4970862;28;20270;-79
2023/09/24 10:29:18;;;;;;;4.07;2.20;;;35.40;1.00;;;;;;4960788;28;20190;-79
2023/09/24 10:32:08;;;;;;;4.10;2.13;;;35.10;1.00;;;;;;4965954;28;20274;-80
2023/09/24 10:34:55;;;;;;;4.65;2.22;;;35.60;1.00;;;;;;4965130;28;20245;-79
2023/09/24 10:37:24;;;;;;;3.70;2.00;;;36.00;1.00;;;;;;4971071;28;20705;-80
2023/09/24 10:40:05;;;;;;;4.53;2.20;;;35.60;1.00;;;;;;4957012;28;20187;-78
2023/09/24 10:42:37;;;;;;;3.17;1.73;;;35.60;1.00;;;;;;4971400;28;20257;-79
2023/09/24 10:45:06;;;;;;;3.20;1.60;;;36.60;1.00;;;;;;4970514;28;20211;-79
2023/09/24 10:47:38;;;;;;;3.47;1.90;;;37.20;1.00;;;;;;4972151;28;20218;-81
2023/09/24 10:50:16;;;;;;;3.47;1.75;;;38.20;1.00;;;;;;4971528;28;20191;-80
2023/09/24 10:52:59;;;;;;;3.97;2.10;;;38.60;1.00;;;;;;4971940;28;20291;-80
2023/09/24 10:55:30;;;;;;;4.22;1.90;;;39.10;1.00;;;;;;4965603;28;20179;-79
2023/09/24 10:58:11;;;;;;;4.88;1.70;;;38.50;1.00;;;;;;4971760;28;20191;-80
2023/09/24 11:00:37;;;;;;;3.40;1.60;;;38.90;1.00;;;;;;4971822;28;20217;-79
2023/09/24 11:03:09;;;;;;;3.85;1.83;;;39.10;1.00;;;;;;4971992;28;20195;-80
2023/09/24 11:05:41;;;;;;;2.80;1.60;;;39.20;1.00;;;;;;4971419;28;20262;-82
2023/09/24 11:08:07;;;;;;;3.10;1.52;;;39.00;1.00;;;;;;4971316;28;20215;-81
2023/09/24 11:10:33;;;;;;;3.67;1.52;;;38.60;1.00;;;;;;4971674;28;20214;-81
2023/09/24 11:13:01;;;;;;;3.58;1.67;;;38.20;1.00;;;;;;4971263;28;20183;-79
2023/09/24 11:15:35;;;;;;;2.80;1.40;;;38.10;1.00;;;;;;4970978;28;20230;-80
2023/09/24 11:18:01;;;;;;;3.25;1.90;;;38.90;1.00;;;;;;4971373;28;20250;-79
2023/09/24 11:20:30;;;;;;;4.53;1.73;;;39.30;1.00;;;;;;4970359;28;20223;-79
2023/09/24 11:23:01;;;;;;;3.60;1.77;;;38.70;1.00;;;;;;4970780;28;20187;-79
2023/09/24 11:25:28;;;;;;;3.72;1.70;;;37.60;1.00;;;;;;4971257;28;20566;-79
2023/09/24 11:27:55;;;;;;;3.33;1.50;;;37.90;1.00;;;;;;4970833;28;20227;-79
2023/09/24 11:30:29;;;;;;;5.97;1.70;;;39.00;1.00;;;;;;4968050;28;20191;-80
2023/09/24 11:32:54;;;;;;;2.75;1.55;;;39.10;1.00;;;;;;4969827;28;20226;-80
2023/09/24 11:35:22;;;;;;;3.10;1.73;;;39.20;1.00;;;;;;4968257;28;20187;-81
2023/09/24 11:38:01;;;;;;;3.65;1.73;;;39.50;1.00;;;;;;4968294;28;20183;-79
2023/09/24 11:40:33;;;;;;;4.07;1.70;;;39.10;1.00;;;;;;4967099;28;20718;-80
2023/09/24 11:42:59;;;;;;;4.13;2.00;;;39.20;1.00;;;;;;4967963;28;20180;-79
2023/09/24 11:45:48;;;;;;;3.75;1.70;;;39.60;1.00;;;;;;4967362;28;20183;-79
2023/09/24 11:48:18;;;;;;;3.53;1.70;;;39.90;1.00;;;;;;4969067;28;20295;-77
2023/09/24 11:50:49;;;;;;;3.97;1.70;;;40.30;1.00;;;;;;4967814;28;20242;-78
2023/09/24 11:53:17;;;;;;;4.95;1.90;;;40.70;1.00;;;;;;4951539;28;20719;-78
2023/09/24 11:55:43;;;;;;;2.97;1.80;;;40.00;1.00;;;;;;4967368;28;20249;-79
2023/09/24 11:58:10;;;;;;;2.92;1.48;;;39.50;1.00;;;;;;4968915;28;20183;-80
2023/09/24 12:00:40;;;;;;;3.08;1.50;;;39.20;1.00;;;;;;4965994;28;20242;-79
2023/09/24 12:03:06;;;;;;;3.75;1.60;;;38.60;1.00;;;;;;4949872;28;20739;-79
2023/09/24 12:05:32;;;;;;;5.53;2.10;;;37.50;1.00;;;;;;4968330;28;20195;-78
2023/09/24 12:07:58;;;;;;;3.17;1.88;;;36.90;1.00;;;;;;4969470;28;20709;-72
2023/09/24 12:10:24;;;;;;;4.72;2.13;;;37.40;1.00;;;;;;4968846;28;20191;-78
2023/09/24 12:12:50;;;;;;;3.30;1.70;;;37.70;1.00;;;;;;4968529;28;20187;-78
2023/09/24 12:15:17;;;;;;;3.55;1.90;;;38.50;1.00;;;;;;4967106;28;20254;-78
2023/09/24 12:17:45;;;;;;;3.10;1.80;;;38.20;1.00;;;;;;4968512;28;20728;-80
2023/09/24 12:20:11;;;;;;;3.38;1.85;;;38.20;1.00;;;;;;4961423;28;20994;-79
2023/09/24 12:22:40;;;;;;;2.70;1.42;;;38.30;1.00;;;;;;4964566;28;20187;-78
2023/09/24 12:25:06;;;;;;;4.95;2.00;;;38.90;1.00;;;;;;4969116;28;20686;-77
2023/09/24 12:27:32;;;;;;;3.22;1.77;;;38.80;1.00;;;;;;4968626;28;20805;-77
2023/09/24 12:29:57;;;;;;;3.67;1.85;;;38.40;1.00;;;;;;4950492;28;20179;-75
2023/09/24 12:32:23;;;;;;;5.30;1.70;;;37.80;1.00;;;;;;4965660;28;20689;-77
2023/09/24 12:34:49;;;;;;;2.90;1.92;;;37.70;1.00;;;;;;4965338;28;20325;-76
2023/09/24 12:37:15;;;;;;;4.95;1.80;;;38.50;1.00;;;;;;4967601;28;20207;-78
2023/09/24 12:39:41;;;;;;;3.28;1.80;;;38.50;1.00;;;;;;4968130;28;20237;-77
2023/09/24 12:42:07;;;;;;;3.97;1.95;;;37.70;1.00;;;;;;4969279;28;20250;-78
2023/09/24 12:44:32;;;;;;;3.65;1.95;;;37.90;1.00;;;;;;4969575;28;21160;-79
2023/09/24 12:46:59;;;;;;;4.45;1.80;;;37.90;1.00;;;;;;4969800;28;20191;-82
2023/09/24 12:49:24;;;;;;;2.80;1.60;;;37.50;1.00;;;;;;4970193;28;20241;-78
2023/09/24 12:51:50;;;;;;;3.17;1.80;;;38.30;1.00;;;;;;4969884;28;20207;-77
2023/09/24 12:54:15;;;;;;;3.40;1.80;;;39.20;1.00;;;;;;4969581;28;20615;-78
2023/09/24 12:56:41;;;;;;;5.43;1.88;;;39.10;1.00;;;;;;4971740;28;20191;-77
2023/09/24 12:59:07;;;;;;;3.42;1.73;;;38.70;1.00;;;;;;4967826;28;20179;-78
2023/09/24 13:01:32;;;;;;;3.17;1.70;;;38.90;1.00;;;;;;4969763;28;20215;-77